Terminal Aerodrome Forecast
Issued by NWS Charleston, WV

Current Version | Previous Version | Graphics & Text | Print | Product List | Glossary On
Versions: 1 2 3 4 5 6 7 8 9 10 11 12 13 14 15 16 17 18 19 20 21
000
FTUS41 KRLX 311446 AAA
TAFHTS
TAF AMD
KHTS 311446Z 3115/0112 26006KT P6SM SKC
     FM010300 25004KT P6SM SCT080
     FM010900 VRB02KT 6SM BR SCT250=

USA.gov is the U.S. government's official web portal to all federal, state and local government web resources and services.